CW5039 Weather Reports


Display with metric or nautical units.
time (UTC)temp
F
wind
direction
speed
MPH
gust
MPH
rain 1hr
in
rain 24hr
in
rain mn
in
humidity
%
barometer
mb
20220123053403 76 246 11.0 15.0 0.00 0.00 0.00 59 1012.4
20220123052404 77 245 12.0 15.0 0.00 0.00 0.00 58 1012.5
20220123051404 77 259 9.0 14.0 0.00 0.00 0.00 58 1012.6
20220123050903 77 244 12.0 15.0 0.00 0.00 0.00 58 1012.6
20220123045404 78 248 12.0 13.0 0.00 0.00 0.00 56 1012.6
20220123044903 79 250 10.0 13.0 0.00 0.00 0.00 56 1012.6
20220123044403 79 249 10.0 12.0 0.00 0.00 0.00 55 1012.7
20220123043903 80 233 9.0 13.0 0.00 0.00 0.00 55 1012.8
20220123043403 80 252 9.0 12.0 0.00 0.00 0.00 55 1012.9
20220123042903 80 255 7.0 12.0 0.00 0.00 0.00 55 1012.9
20220123042403 81 250 8.0 12.0 0.00 0.00 0.00 50 1013.0
20220123041903 81 281 3.0 3.0 0.00 0.00 0.00 49 1013.0
20220123041405 80 289 2.0 3.0 0.00 0.00 0.00 48 1013.0
20220123040903 80 311 3.0 5.0 0.00 0.00 0.00 47 1013.0
20220123040403 80 336 5.0 6.0 0.00 0.00 0.00 48 1013.0
20220123035903 81 355 3.0 3.0 0.00 0.00 0.00 45 1013.1
20220123035403 82 342 1.0 3.0 0.00 0.00 0.00 44 1013.1
20220123034903 82 333 2.0 3.0 0.00 0.00 0.00 46 1013.1
20220123034403 82 313 4.0 5.0 0.00 0.00 0.00 45 1013.1
20220123033404 82 82 1.0 3.0 0.00 0.00 0.00 47 1013.1
20220123032903 82 152 3.0 5.0 0.00 0.00 0.00 48 1013.1
20220123032403 82 202 3.0 5.0 0.00 0.00 0.00 45 1013.1
20220123031903 82 52 3.0 3.0 0.00 0.00 0.00 45 1013.2
20220123031403 82 95 3.0 3.0 0.00 0.00 0.00 47 1013.4
20220123030903 81 140 2.0 5.0 0.00 0.00 0.00 47 1013.3
20220123025903 81 104 3.0 6.0 0.00 0.00 0.00 48 1013.4
20220123024903 81 143 5.0 7.0 0.00 0.00 0.00 48 1013.4
20220123023403 82 130 4.0 7.0 0.00 0.00 0.00 48 1013.5
20220123022903 83 244 2.0 12.0 0.00 0.00 0.00 46 1013.6
20220123022403 83 98 5.0 8.0 0.00 0.00 0.00 44 1013.6
20220123021903 83 59 2.0 3.0 0.00 0.00 0.00 48 1013.6
20220123021403 83 341 3.0 9.0 0.00 0.00 0.00 46 1013.8
20220123020403 85 181 6.0 10.0 0.00 0.00 0.00 45 1014.0
20220123014903 83 255 4.0 6.0 0.00 0.00 0.00 50 1014.1
20220123014403 81 275 4.0 10.0 0.00 0.00 0.00 49 1014.1
20220123013903 81 35 2.0 3.0 0.00 0.00 0.00 45 1014.1
20220123013403 81 303 2.0 5.0 0.00 0.00 0.00 45 1014.3
20220123012903 81 299 4.0 7.0 0.00 0.00 0.00 48 1014.4
20220123011403 82 126 2.0 3.0 0.00 0.00 0.00 50 1014.6
20220123005403 80 316 3.0 5.0 0.00 0.00 0.00 50 1014.7
20220123004903 81 308 2.0 5.0 0.00 0.00 0.00 48 1014.7
20220123004403 81 268 3.0 7.0 0.00 0.00 0.00 49 1014.7
20220123003903 80 291 2.0 6.0 0.00 0.00 0.00 49 1014.7
20220123003403 81 353 2.0 5.0 0.00 0.00 0.00 49 1014.9
20220123002903 81 330 4.0 7.0 0.00 0.00 0.00 52 1015.0
20220123002404 80 329 3.0 5.0 0.00 0.00 0.00 53 1015.1
20220123001403 80 298 1.0 2.0 0.00 0.00 0.00 53 1015.1
20220123000903 81 107 3.0 5.0 0.00 0.00 0.00 53 1015.2
20220123000403 80 141 6.0 9.0 0.00 0.00 0.00 52 1015.2
20220122234906 80 282 2.0 5.0 0.00 0.00 0.00 53 1015.5
20220122234403 79 27 3.0 5.0 0.00 0.00 0.00 56 1015.5
20220122233903 78 304 1.0 3.0 0.00 0.00 0.00 60 1015.6
20220122232404 78 213 6.0 10.0 0.00 0.00 0.00 59 1015.7
20220122231903 77 182 5.0 9.0 0.00 0.00 0.00 59 1015.7
20220122231403 76 260 2.0 3.0 0.00 0.00 0.00 60 1015.7
20220122230902 75 297 2.0 6.0 0.00 0.00 0.00 63 1015.8
20220122230403 76 285 5.0 7.0 0.00 0.00 0.00 64 1015.9
20220122225905 76 247 5.0 7.0 0.00 0.00 0.00 61 1016.0
20220122224903 77 161 1.0 3.0 0.00 0.00 0.00 63 1016.1
20220122223903 76 244 2.0 3.0 0.00 0.00 0.00 65 1016.2
20220122221903 76 157 3.0 3.0 0.00 0.00 0.00 64 1016.5
20220122221403 75 155 3.0 5.0 0.00 0.00 0.00 68 1016.5
20220122220903 73 273 1.0 3.0 0.00 0.00 0.00 67 1016.6
20220122220403 74 245 2.0 3.0 0.00 0.00 0.00 70 1016.6
20220122215903 74 196 3.0 3.0 0.00 0.00 0.00 66 1016.7
20220122215403 74 200 4.0 6.0 0.00 0.00 0.00 66 1016.6
20220122214903 74 233 5.0 7.0 0.00 0.00 0.00 67 1016.7
20220122213903 74 166 3.0 3.0 0.00 0.00 0.00 68 1016.8
20220122213403 74 319 2.0 3.0 0.00 0.00 0.00 68 1016.8
20220122212903 74 339 1.0 3.0 0.00 0.00 0.00 68 1016.9
20220122211403 73 208 3.0 9.0 0.00 0.00 0.00 74 1017.2
20220122210403 72 270 2.0 5.0 0.00 0.00 0.00 72 1017.3
20220122205903 73 235 4.0 6.0 0.00 0.00 0.00 71 1017.3
20220122205403 73 208 5.0 6.0 0.00 0.00 0.00 70 1017.3
20220122203905 72 285 3.0 5.0 0.00 0.00 0.00 74 1017.6
20220122203403 72 316 2.0 5.0 0.00 0.00 0.00 76 1017.6
20220122202903 71 302 3.0 6.0 0.00 0.00 0.00 76 1017.6
20220122201903 70 287 1.0 3.0 0.00 0.00 0.00 77 1017.5
20220122201403 70 304 2.0 3.0 0.00 0.00 0.00 80 1017.5
20220122200904 69 302 1.0 2.0 0.00 0.00 0.00 79 1017.5
20220122200403 69 329 1.0 3.0 0.00 0.00 0.00 79 1017.4
20220122195903 69 291 1.0 3.0 0.00 0.00 0.00 80 1017.3
20220122195403 69 286 2.0 3.0 0.00 0.00 0.00 80 1017.3
20220122194905 68 327 1.0 3.0 0.00 0.00 0.00 82 1017.3
20220122194403 67 329 2.0 3.0 0.00 0.00 0.00 83 1017.4
20220122193903 67 337 1.0 3.0 0.00 0.00 0.00 82 1017.4
20220122193403 67 324 2.0 3.0 0.00 0.00 0.00 83 1017.3
20220122192903 67 9 1.0 2.0 0.00 0.00 0.00 84 1017.3
20220122192403 66 0 2.0 3.0 0.00 0.00 0.00 84 1017.2
20220122191904 66 16 1.0 2.0 0.00 0.00 0.00 85 1017.2
20220122191403 65 55 1.0 2.0 0.00 0.00 0.00 86 1017.2
20220122190403 64 65 1.0 2.0 0.00 0.00 0.00 87 1017.2
20220122185903 64 67 1.0 2.0 0.00 0.00 0.00 88 1017.1
20220122185403 63 69 1.0 3.0 0.00 0.00 0.00 88 1017.1
20220122184403 63 66 2.0 3.0 0.00 0.00 0.00 89 1016.9
20220122183903 63 64 3.0 5.0 0.00 0.00 0.00 90 1016.9
20220122183403 62 51 3.0 5.0 0.00 0.00 0.00 90 1017.1
20220122182903 62 43 3.0 3.0 0.00 0.00 0.00 90 1017.2
20220122182403 62 26 3.0 3.0 0.00 0.00 0.00 90 1017.2
20220122181903 62 35 3.0 3.0 0.00 0.00 0.00 91 1017.2
20220122180403 61 66 0.0 1.0 0.00 0.00 0.00 92 1017.0
20220122175903 61 66 1.0 1.0 0.00 0.00 0.00 92 1017.0
20220122175403 60 66 1.0 1.0 0.00 0.00 0.00 92 1017.0
20220122174903 60 66 1.0 2.0 0.00 0.00 0.00 92 1017.0
20220122174403 60 66 2.0 3.0 0.00 0.00 0.00 92 1016.8
20220122173903 60 66 2.0 3.0 0.00 0.00 0.00 92 1016.8
20220122172403 60 67 2.0 3.0 0.00 0.00 0.00 91 1016.8
20220122171903 60 71 3.0 5.0 0.00 0.00 0.00 91 1016.8
20220122170903 61 49 2.0 3.0 0.00 0.00 0.00 91 1016.7
20220122165403 61 324 1.0 2.0 0.00 0.00 0.00 92 1016.8
20220122164903 60 324 1.0 2.0 0.00 0.00 0.00 93 1016.8
20220122164403 60 324 1.0 3.0 0.00 0.00 0.00 94 1016.8
20220122163903 60 324 2.0 3.0 0.00 0.00 0.00 94 1016.9
20220122163403 60 324 3.0 3.0 0.00 0.00 0.00 94 1016.9
20220122162903 60 325 3.0 3.0 0.00 0.00 0.00 93 1016.8
20220122162403 60 325 2.0 3.0 0.00 0.00 0.00 93 1016.9
20220122161904 60 325 2.0 3.0 0.00 0.00 0.00 94 1016.8
20220122161403 59 325 3.0 3.0 0.00 0.00 0.00 94 1016.9
20220122160403 59 323 5.0 5.0 0.00 0.00 0.00 93 1016.9
20220122155903 59 319 3.0 3.0 0.00 0.00 0.00 93 1016.9
20220122154903 59 336 3.0 5.0 0.00 0.00 0.00 92 1016.8
20220122154404 59 341 5.0 5.0 0.00 0.00 0.00 92 1017.0
20220122153903 58 338 5.0 5.0 0.00 0.00 0.00 92 1017.0
20220122153403 58 344 5.0 5.0 0.00 0.00 0.00 91 1016.9
20220122152903 59 343 5.0 5.0 0.00 0.00 0.00 91 1016.9
20220122151403 60 345 5.0 7.0 0.00 0.00 0.00 91 1017.2
20220122150403 59 344 6.0 7.0 0.00 0.00 0.00 92 1017.3
20220122145903 59 346 5.0 6.0 0.00 0.00 0.00 91 1017.3
20220122144903 59 345 5.0 6.0 0.00 0.00 0.00 91 1017.4
20220122144404 59 350 5.0 6.0 0.00 0.00 0.00 91 1017.4
20220122142403 59 350 5.0 5.0 0.00 0.00 0.00 89 1017.6
20220122141403 60 357 5.0 6.0 0.00 0.00 0.00 88 1017.7
20220122140403 60 0 5.0 6.0 0.00 0.00 0.00 91 1017.8
20220122134903 60 29 5.0 5.0 0.00 0.00 0.00 90 1017.8
20220122132903 60 0 3.0 5.0 0.00 0.00 0.00 90 1017.9
20220122132403 60 10 5.0 5.0 0.00 0.00 0.00 90 1018.0
20220122131903 61 358 3.0 3.0 0.00 0.00 0.00 89 1018.0
20220122130903 61 5 3.0 5.0 0.00 0.00 0.00 88 1018.1
20220122130403 61 17 3.0 3.0 0.00 0.00 0.00 88 1018.1
20220122125903 62 18 3.0 3.0 0.00 0.00 0.00 87 1018.2
20220122125403 62 24 3.0 5.0 0.00 0.00 0.00 87 1018.3
20220122124903 62 16 4.0 6.0 0.00 0.00 0.00 87 1018.3
20220122124405 62 358 4.0 6.0 0.00 0.00 0.00 86 1018.3
20220122123903 63 353 5.0 5.0 0.00 0.00 0.00 84 1018.3
20220122123403 63 348 5.0 6.0 0.00 0.00 0.00 85 1018.3
20220122122903 63 346 5.0 6.0 0.00 0.00 0.00 84 1018.4
20220122121903 64 343 5.0 6.0 0.00 0.00 0.00 83 1018.5
20220122121403 64 356 5.0 6.0 0.00 0.00 0.00 83 1018.5
20220122120903 64 354 5.0 6.0 0.00 0.00 0.00 83 1018.5
20220122120403 63 351 5.0 7.0 0.00 0.00 0.00 84 1018.6
20220122115903 63 1 5.0 7.0 0.00 0.00 0.00 83 1018.6
20220122115403 63 10 5.0 6.0 0.00 0.00 0.00 83 1018.6
20220122114904 63 14 5.0 5.0 0.00 0.00 0.00 83 1018.7
20220122114403 63 12 3.0 3.0 0.00 0.00 0.00 84 1018.8
20220122112902 62 48 3.0 3.0 0.00 0.00 0.00 84 1018.9
20220122111403 63 5 1.0 3.0 0.00 0.00 0.00 82 1018.9
20220122110903 63 5 2.0 3.0 0.00 0.00 0.00 82 1018.9
20220122105903 64 9 3.0 3.0 0.00 0.00 0.00 80 1019.1
20220122105403 65 22 2.0 3.0 0.00 0.00 0.00 80 1019.1
20220122104903 65 5 2.0 3.0 0.00 0.00 0.00 80 1019.1
20220122103904 65 333 3.0 5.0 0.00 0.00 0.00 78 1019.0
20220122103403 65 336 4.0 6.0 0.00 0.00 0.00 78 1018.9
20220122102403 65 327 5.0 6.0 0.00 0.00 0.00 79 1018.8
20220122101905 64 329 5.0 6.0 0.00 0.00 0.00 80 1018.8
20220122101402 64 314 4.0 5.0 0.00 0.00 0.00 82 1018.9
20220122100403 63 296 3.0 3.0 0.00 0.00 0.00 80 1018.8
20220122095904 63 281 2.0 3.0 0.00 0.00 0.00 80 1018.8
20220122094403 62 285 2.0 3.0 0.00 0.00 0.00 81 1018.5
20220122093903 62 285 2.0 3.0 0.00 0.00 0.00 82 1018.4
20220122093403 63 285 2.0 3.0 0.00 0.00 0.00 81 1018.3
20220122092903 63 285 1.0 2.0 0.00 0.00 0.00 81 1018.3
20220122092403 63 285 2.0 2.0 0.00 0.00 0.00 81 1018.1
20220122091903 64 285 1.0 2.0 0.00 0.00 0.00 80 1018.0
20220122090903 64 285 3.0 3.0 0.00 0.00 0.00 77 1018.4
20220122090403 65 286 2.0 3.0 0.00 0.00 0.00 76 1018.3
20220122085903 65 286 3.0 3.0 0.00 0.00 0.00 76 1018.0
20220122085403 66 285 3.0 3.0 0.00 0.00 0.00 74 1017.9
20220122084903 66 290 3.0 3.0 0.00 0.00 0.00 74 1017.8
20220122084405 67 304 2.0 3.0 0.00 0.00 0.00 73 1017.8
20220122083903 68 304 2.0 3.0 0.00 0.00 0.00 71 1017.8
20220122083403 68 304 2.0 3.0 0.00 0.00 0.00 70 1017.8
20220122082403 70 304 2.0 3.0 0.00 0.00 0.00 66 1017.9
20220122081903 70 296 3.0 3.0 0.00 0.00 0.00 65 1018.1
20220122081403 71 288 3.0 6.0 0.00 0.00 0.00 64 1018.1
20220122075403 72 300 5.0 10.0 0.00 0.00 0.00 63 1018.1
20220122074904 72 296 6.0 8.0 0.00 0.00 0.00 63 1017.9
20220122074404 73 288 7.0 9.0 0.00 0.00 0.00 61 1017.8
20220122073903 73 286 7.0 9.0 0.00 0.00 0.00 62 1017.8
20220122073403 73 288 6.0 12.0 0.00 0.00 0.00 61 1017.7
20220122072902 74 296 9.0 12.0 0.00 0.00 0.00 60 1017.6
20220122072403 75 289 10.0 12.0 0.00 0.00 0.00 56 1017.5
20220122071403 75 267 11.0 14.0 0.00 0.00 0.00 54 1017.4
20220122070905 76 267 11.0 14.0 0.00 0.00 0.00 53 1017.3
20220122070404 76 267 13.0 15.0 0.00 0.00 0.00 53 1017.3
20220122065902 77 267 9.0 13.0 0.00 0.00 0.00 53 1017.3
20220122065403 78 264 10.0 13.0 0.00 0.00 0.00 51 1017.3
20220122064903 78 248 12.0 14.0 0.00 0.00 0.00 52 1017.3
20220122064403 79 248 12.0 15.0 0.00 0.00 0.00 51 1017.3
20220122063403 80 253 11.0 14.0 0.00 0.00 0.00 50 1017.3
20220122062903 80 240 6.0 12.0 0.00 0.00 0.00 50 1017.2
20220122061903 81 234 10.0 12.0 0.00 0.00 0.00 50 1017.1
20220122061406 82 236 7.0 12.0 0.00 0.00 0.00 48 1016.9
20220122060903 81 235 9.0 12.0 0.00 0.00 0.00 51 1016.9
20220122055902 79 248 7.0 10.0 0.00 0.00 0.00 52 1016.8
20220122054403 80 264 1.0 3.0 0.00 0.00 0.00 51 1016.8